sensor_id;sensor_type;location;lat;lon;timestamp;P1;durP1;ratioP1;P2;durP2;ratioP2
9898;SDS011;4988;49.238;6.698;2024-01-27T00:00:04;23.00;;;9.90;;
9898;SDS011;4988;49.238;6.698;2024-01-27T00:02:30;25.10;;;10.13;;
9898;SDS011;4988;49.238;6.698;2024-01-27T00:04:55;19.57;;;9.53;;
9898;SDS011;4988;49.238;6.698;2024-01-27T00:07:20;20.17;;;9.30;;
9898;SDS011;4988;49.238;6.698;2024-01-27T00:09:46;22.23;;;10.37;;
9898;SDS011;4988;49.238;6.698;2024-01-27T00:12:11;21.97;;;9.67;;
9898;SDS011;4988;49.238;6.698;2024-01-27T00:14:40;22.73;;;10.43;;
9898;SDS011;4988;49.238;6.698;2024-01-27T00:17:05;20.30;;;10.17;;
9898;SDS011;4988;49.238;6.698;2024-01-27T00:19:31;24.37;;;9.77;;
9898;SDS011;4988;49.238;6.698;2024-01-27T00:21:56;24.93;;;9.50;;
9898;SDS011;4988;49.238;6.698;2024-01-27T00:24:21;18.80;;;9.33;;
9898;SDS011;4988;49.238;6.698;2024-01-27T00:26:47;19.93;;;9.20;;
9898;SDS011;4988;49.238;6.698;2024-01-27T00:29:12;20.37;;;9.83;;
9898;SDS011;4988;49.238;6.698;2024-01-27T00:31:38;23.27;;;9.83;;
9898;SDS011;4988;49.238;6.698;2024-01-27T00:34:03;19.47;;;9.00;;
9898;SDS011;4988;49.238;6.698;2024-01-27T00:36:28;21.67;;;9.40;;
9898;SDS011;4988;49.238;6.698;2024-01-27T00:38:54;23.73;;;9.90;;
9898;SDS011;4988;49.238;6.698;2024-01-27T00:41:19;22.53;;;10.03;;
9898;SDS011;4988;49.238;6.698;2024-01-27T00:43:45;22.63;;;10.80;;
9898;SDS011;4988;49.238;6.698;2024-01-27T00:46:10;22.70;;;11.07;;
9898;SDS011;4988;49.238;6.698;2024-01-27T00:48:36;18.37;;;9.33;;
9898;SDS011;4988;49.238;6.698;2024-01-27T00:51:01;20.53;;;9.30;;
9898;SDS011;4988;49.238;6.698;2024-01-27T00:53:26;23.60;;;9.07;;
9898;SDS011;4988;49.238;6.698;2024-01-27T00:55:52;20.30;;;8.67;;
9898;SDS011;4988;49.238;6.698;2024-01-27T00:58:17;17.03;;;8.00;;
9898;SDS011;4988;49.238;6.698;2024-01-27T01:00:42;20.30;;;8.70;;
9898;SDS011;4988;49.238;6.698;2024-01-27T01:03:07;17.07;;;8.20;;
9898;SDS011;4988;49.238;6.698;2024-01-27T01:05:33;17.53;;;7.60;;
9898;SDS011;4988;49.238;6.698;2024-01-27T01:07:58;12.50;;;7.60;;
9898;SDS011;4988;49.238;6.698;2024-01-27T01:10:23;19.40;;;7.60;;
9898;SDS011;4988;49.238;6.698;2024-01-27T01:12:49;19.33;;;8.80;;
9898;SDS011;4988;49.238;6.698;2024-01-27T01:15:14;16.87;;;8.47;;
9898;SDS011;4988;49.238;6.698;2024-01-27T01:17:41;23.27;;;9.50;;
9898;SDS011;4988;49.238;6.698;2024-01-27T01:20:06;25.83;;;10.37;;
9898;SDS011;4988;49.238;6.698;2024-01-27T01:22:32;25.17;;;10.47;;
9898;SDS011;4988;49.238;6.698;2024-01-27T01:24:58;26.37;;;11.07;;
9898;SDS011;4988;49.238;6.698;2024-01-27T01:27:23;24.27;;;10.80;;
9898;SDS011;4988;49.238;6.698;2024-01-27T01:29:48;27.03;;;10.50;;
9898;SDS011;4988;49.238;6.698;2024-01-27T01:32:14;24.13;;;10.97;;
9898;SDS011;4988;49.238;6.698;2024-01-27T01:34:40;31.57;;;11.57;;
9898;SDS011;4988;49.238;6.698;2024-01-27T01:37:05;24.90;;;10.27;;
9898;SDS011;4988;49.238;6.698;2024-01-27T01:39:31;26.33;;;11.50;;
9898;SDS011;4988;49.238;6.698;2024-01-27T01:41:56;28.03;;;11.70;;
9898;SDS011;4988;49.238;6.698;2024-01-27T01:44:22;27.50;;;10.73;;
9898;SDS011;4988;49.238;6.698;2024-01-27T01:46:47;28.63;;;10.87;;
9898;SDS011;4988;49.238;6.698;2024-01-27T01:49:12;26.47;;;11.03;;
9898;SDS011;4988;49.238;6.698;2024-01-27T01:51:38;24.30;;;10.53;;
9898;SDS011;4988;49.238;6.698;2024-01-27T01:54:04;30.20;;;11.27;;
9898;SDS011;4988;49.238;6.698;2024-01-27T01:56:30;26.00;;;10.90;;
9898;SDS011;4988;49.238;6.698;2024-01-27T01:58:55;23.97;;;10.63;;
9898;SDS011;4988;49.238;6.698;2024-01-27T02:01:21;25.67;;;10.67;;
9898;SDS011;4988;49.238;6.698;2024-01-27T02:03:55;26.50;;;11.10;;
9898;SDS011;4988;49.238;6.698;2024-01-27T02:06:21;23.37;;;11.63;;
9898;SDS011;4988;49.238;6.698;2024-01-27T02:08:47;26.77;;;11.60;;
9898;SDS011;4988;49.238;6.698;2024-01-27T02:11:12;33.07;;;11.47;;
9898;SDS011;4988;49.238;6.698;2024-01-27T02:13:38;26.80;;;10.70;;
9898;SDS011;4988;49.238;6.698;2024-01-27T02:16:03;24.87;;;10.93;;
9898;SDS011;4988;49.238;6.698;2024-01-27T02:18:29;21.77;;;11.20;;
9898;SDS011;4988;49.238;6.698;2024-01-27T02:20:54;24.60;;;10.00;;
9898;SDS011;4988;49.238;6.698;2024-01-27T02:23:20;20.97;;;9.57;;
9898;SDS011;4988;49.238;6.698;2024-01-27T02:25:45;16.50;;;8.23;;
9898;SDS011;4988;49.238;6.698;2024-01-27T02:28:10;18.23;;;8.77;;
9898;SDS011;4988;49.238;6.698;2024-01-27T02:30:37;21.77;;;8.83;;
9898;SDS011;4988;49.238;6.698;2024-01-27T02:33:03;20.97;;;8.87;;
9898;SDS011;4988;49.238;6.698;2024-01-27T02:35:29;23.47;;;9.00;;
9898;SDS011;4988;49.238;6.698;2024-01-27T02:37:54;20.17;;;8.40;;
9898;SDS011;4988;49.238;6.698;2024-01-27T02:40:20;18.67;;;8.13;;
9898;SDS011;4988;49.238;6.698;2024-01-27T02:42:45;19.83;;;8.40;;
9898;SDS011;4988;49.238;6.698;2024-01-27T02:45:10;23.43;;;8.97;;
9898;SDS011;4988;49.238;6.698;2024-01-27T02:47:36;19.50;;;8.80;;
9898;SDS011;4988;49.238;6.698;2024-01-27T02:50:02;18.43;;;8.70;;
9898;SDS011;4988;49.238;6.698;2024-01-27T02:52:28;21.90;;;9.77;;
9898;SDS011;4988;49.238;6.698;2024-01-27T02:54:55;21.07;;;9.70;;
9898;SDS011;4988;49.238;6.698;2024-01-27T02:57:20;26.33;;;10.33;;
9898;SDS011;4988;49.238;6.698;2024-01-27T02:59:46;23.20;;;9.77;;
9898;SDS011;4988;49.238;6.698;2024-01-27T03:02:11;24.60;;;9.60;;
9898;SDS011;4988;49.238;6.698;2024-01-27T03:04:37;26.00;;;10.83;;
9898;SDS011;4988;49.238;6.698;2024-01-27T03:07:02;19.80;;;9.40;;
9898;SDS011;4988;49.238;6.698;2024-01-27T03:09:28;22.90;;;10.43;;
9898;SDS011;4988;49.238;6.698;2024-01-27T03:11:53;24.23;;;9.63;;
9898;SDS011;4988;49.238;6.698;2024-01-27T03:14:19;22.63;;;10.27;;
9898;SDS011;4988;49.238;6.698;2024-01-27T03:16:44;22.97;;;9.60;;
9898;SDS011;4988;49.238;6.698;2024-01-27T03:19:10;19.27;;;9.97;;
9898;SDS011;4988;49.238;6.698;2024-01-27T03:21:35;18.53;;;9.17;;
9898;SDS011;4988;49.238;6.698;2024-01-27T03:24:01;21.63;;;9.50;;
9898;SDS011;4988;49.238;6.698;2024-01-27T03:26:26;20.00;;;9.80;;
9898;SDS011;4988;49.238;6.698;2024-01-27T03:28:52;22.87;;;9.07;;
9898;SDS011;4988;49.238;6.698;2024-01-27T03:31:17;18.90;;;9.73;;
9898;SDS011;4988;49.238;6.698;2024-01-27T03:33:42;18.13;;;8.93;;
9898;SDS011;4988;49.238;6.698;2024-01-27T03:36:11;20.03;;;9.60;;
9898;SDS011;4988;49.238;6.698;2024-01-27T03:38:37;22.27;;;9.13;;
9898;SDS011;4988;49.238;6.698;2024-01-27T03:41:03;21.80;;;9.10;;
9898;SDS011;4988;49.238;6.698;2024-01-27T03:43:29;21.90;;;9.17;;
9898;SDS011;4988;49.238;6.698;2024-01-27T03:45:56;20.67;;;9.13;;
9898;SDS011;4988;49.238;6.698;2024-01-27T03:48:21;19.30;;;9.33;;
9898;SDS011;4988;49.238;6.698;2024-01-27T03:50:46;21.87;;;9.33;;
9898;SDS011;4988;49.238;6.698;2024-01-27T03:53:12;19.13;;;9.10;;
9898;SDS011;4988;49.238;6.698;2024-01-27T03:55:37;20.77;;;8.73;;
9898;SDS011;4988;49.238;6.698;2024-01-27T03:58:02;19.33;;;8.73;;
9898;SDS011;4988;49.238;6.698;2024-01-27T04:00:28;16.70;;;8.40;;
9898;SDS011;4988;49.238;6.698;2024-01-27T04:02:57;21.67;;;8.60;;
9898;SDS011;4988;49.238;6.698;2024-01-27T04:05:23;20.07;;;8.17;;
9898;SDS011;4988;49.238;6.698;2024-01-27T04:07:48;17.37;;;8.93;;
9898;SDS011;4988;49.238;6.698;2024-01-27T04:10:16;21.93;;;9.80;;
9898;SDS011;4988;49.238;6.698;2024-01-27T04:12:42;24.37;;;9.50;;
9898;SDS011;4988;49.238;6.698;2024-01-27T04:15:08;22.27;;;10.10;;
9898;SDS011;4988;49.238;6.698;2024-01-27T04:17:33;23.93;;;10.57;;
9898;SDS011;4988;49.238;6.698;2024-01-27T04:19:59;28.43;;;9.90;;
9898;SDS011;4988;49.238;6.698;2024-01-27T04:22:24;23.80;;;9.63;;
9898;SDS011;4988;49.238;6.698;2024-01-27T04:24:49;21.17;;;9.33;;
9898;SDS011;4988;49.238;6.698;2024-01-27T04:27:15;21.40;;;8.93;;
9898;SDS011;4988;49.238;6.698;2024-01-27T04:29:40;24.03;;;9.70;;
9898;SDS011;4988;49.238;6.698;2024-01-27T04:32:06;22.17;;;9.48;;
9898;SDS011;4988;49.238;6.698;2024-01-27T04:34:32;25.03;;;9.87;;
9898;SDS011;4988;49.238;6.698;2024-01-27T04:36:57;21.17;;;9.60;;
9898;SDS011;4988;49.238;6.698;2024-01-27T04:39:23;20.23;;;9.27;;
9898;SDS011;4988;49.238;6.698;2024-01-27T04:41:50;17.92;;;9.32;;
9898;SDS011;4988;49.238;6.698;2024-01-27T04:44:15;27.13;;;11.10;;
9898;SDS011;4988;49.238;6.698;2024-01-27T04:46:40;23.53;;;10.73;;
9898;SDS011;4988;49.238;6.698;2024-01-27T04:49:06;23.20;;;9.60;;
9898;SDS011;4988;49.238;6.698;2024-01-27T04:51:31;37.13;;;12.53;;
9898;SDS011;4988;49.238;6.698;2024-01-27T04:53:56;29.53;;;12.07;;
9898;SDS011;4988;49.238;6.698;2024-01-27T04:56:22;49.57;;;17.23;;
9898;SDS011;4988;49.238;6.698;2024-01-27T04:58:47;68.53;;;23.90;;
9898;SDS011;4988;49.238;6.698;2024-01-27T05:01:12;54.87;;;19.93;;
9898;SDS011;4988;49.238;6.698;2024-01-27T05:03:37;31.73;;;12.37;;
9898;SDS011;4988;49.238;6.698;2024-01-27T05:06:03;27.07;;;11.57;;
9898;SDS011;4988;49.238;6.698;2024-01-27T05:08:32;24.02;;;9.27;;
9898;SDS011;4988;49.238;6.698;2024-01-27T05:10:59;20.17;;;9.30;;
9898;SDS011;4988;49.238;6.698;2024-01-27T05:13:24;24.10;;;9.27;;
9898;SDS011;4988;49.238;6.698;2024-01-27T05:15:50;20.03;;;8.90;;
9898;SDS011;4988;49.238;6.698;2024-01-27T05:18:15;21.23;;;9.70;;
9898;SDS011;4988;49.238;6.698;2024-01-27T05:20:40;17.63;;;8.57;;
9898;SDS011;4988;49.238;6.698;2024-01-27T05:23:06;21.27;;;9.37;;
9898;SDS011;4988;49.238;6.698;2024-01-27T05:25:31;21.53;;;9.27;;
9898;SDS011;4988;49.238;6.698;2024-01-27T05:27:56;16.67;;;8.17;;
9898;SDS011;4988;49.238;6.698;2024-01-27T05:30:21;18.87;;;8.37;;
9898;SDS011;4988;49.238;6.698;2024-01-27T05:32:47;19.43;;;8.40;;
9898;SDS011;4988;49.238;6.698;2024-01-27T05:35:12;18.17;;;8.97;;
9898;SDS011;4988;49.238;6.698;2024-01-27T05:37:37;26.97;;;9.40;;
9898;SDS011;4988;49.238;6.698;2024-01-27T05:40:05;20.85;;;9.90;;
9898;SDS011;4988;49.238;6.698;2024-01-27T05:42:31;21.70;;;10.05;;
9898;SDS011;4988;49.238;6.698;2024-01-27T05:44:56;26.87;;;10.67;;
9898;SDS011;4988;49.238;6.698;2024-01-27T05:47:22;21.53;;;8.87;;
9898;SDS011;4988;49.238;6.698;2024-01-27T05:49:47;24.13;;;9.83;;
9898;SDS011;4988;49.238;6.698;2024-01-27T05:52:12;21.00;;;8.73;;
9898;SDS011;4988;49.238;6.698;2024-01-27T05:54:39;23.53;;;8.67;;
9898;SDS011;4988;49.238;6.698;2024-01-27T05:57:06;18.13;;;9.10;;
9898;SDS011;4988;49.238;6.698;2024-01-27T05:59:32;20.63;;;8.17;;
9898;SDS011;4988;49.238;6.698;2024-01-27T06:01:57;21.13;;;8.63;;
9898;SDS011;4988;49.238;6.698;2024-01-27T06:04:22;18.77;;;8.03;;
9898;SDS011;4988;49.238;6.698;2024-01-27T06:06:48;20.40;;;8.60;;
9898;SDS011;4988;49.238;6.698;2024-01-27T06:09:13;19.60;;;7.90;;
9898;SDS011;4988;49.238;6.698;2024-01-27T06:11:39;21.33;;;7.63;;
9898;SDS011;4988;49.238;6.698;2024-01-27T06:14:04;16.80;;;7.80;;
9898;SDS011;4988;49.238;6.698;2024-01-27T06:16:30;17.63;;;8.27;;
9898;SDS011;4988;49.238;6.698;2024-01-27T06:18:55;15.80;;;7.70;;
9898;SDS011;4988;49.238;6.698;2024-01-27T06:21:21;19.27;;;7.97;;
9898;SDS011;4988;49.238;6.698;2024-01-27T06:23:46;18.37;;;8.60;;
9898;SDS011;4988;49.238;6.698;2024-01-27T06:26:12;19.03;;;8.20;;
9898;SDS011;4988;49.238;6.698;2024-01-27T06:28:39;16.75;;;8.07;;
9898;SDS011;4988;49.238;6.698;2024-01-27T06:31:04;16.70;;;8.80;;
9898;SDS011;4988;49.238;6.698;2024-01-27T06:33:30;16.87;;;8.27;;
9898;SDS011;4988;49.238;6.698;2024-01-27T06:35:56;18.52;;;8.45;;
9898;SDS011;4988;49.238;6.698;2024-01-27T06:38:21;18.50;;;9.23;;
9898;SDS011;4988;49.238;6.698;2024-01-27T06:40:47;20.47;;;8.63;;
9898;SDS011;4988;49.238;6.698;2024-01-27T06:43:12;17.80;;;8.23;;
9898;SDS011;4988;49.238;6.698;2024-01-27T06:45:39;19.85;;;9.00;;
9898;SDS011;4988;49.238;6.698;2024-01-27T06:48:05;21.55;;;9.27;;
9898;SDS011;4988;49.238;6.698;2024-01-27T06:50:31;20.27;;;8.73;;
9898;SDS011;4988;49.238;6.698;2024-01-27T06:52:57;21.07;;;9.80;;
9898;SDS011;4988;49.238;6.698;2024-01-27T06:55:22;20.57;;;9.30;;
9898;SDS011;4988;49.238;6.698;2024-01-27T06:57:48;21.70;;;9.50;;
9898;SDS011;4988;49.238;6.698;2024-01-27T07:00:13;24.30;;;10.27;;
9898;SDS011;4988;49.238;6.698;2024-01-27T07:02:39;17.83;;;8.83;;
9898;SDS011;4988;49.238;6.698;2024-01-27T07:05:07;16.75;;;8.90;;
9898;SDS011;4988;49.238;6.698;2024-01-27T07:07:33;21.02;;;9.98;;
9898;SDS011;4988;49.238;6.698;2024-01-27T07:09:58;15.80;;;8.60;;
9898;SDS011;4988;49.238;6.698;2024-01-27T07:12:24;21.07;;;9.20;;
9898;SDS011;4988;49.238;6.698;2024-01-27T07:14:49;18.47;;;8.87;;
9898;SDS011;4988;49.238;6.698;2024-01-27T07:17:16;19.38;;;9.15;;
9898;SDS011;4988;49.238;6.698;2024-01-27T07:19:42;18.37;;;8.73;;
9898;SDS011;4988;49.238;6.698;2024-01-27T07:22:07;17.13;;;9.27;;
9898;SDS011;4988;49.238;6.698;2024-01-27T07:24:33;17.30;;;9.17;;
9898;SDS011;4988;49.238;6.698;2024-01-27T07:27:00;23.13;;;10.10;;
9898;SDS011;4988;49.238;6.698;2024-01-27T07:29:26;23.55;;;8.65;;
9898;SDS011;4988;49.238;6.698;2024-01-27T07:31:52;22.63;;;9.90;;
9898;SDS011;4988;49.238;6.698;2024-01-27T07:34:17;21.37;;;10.50;;
9898;SDS011;4988;49.238;6.698;2024-01-27T07:36:43;25.13;;;10.43;;
9898;SDS011;4988;49.238;6.698;2024-01-27T07:39:09;18.15;;;9.68;;
9898;SDS011;4988;49.238;6.698;2024-01-27T07:41:34;24.47;;;10.87;;
9898;SDS011;4988;49.238;6.698;2024-01-27T07:46:35;17.05;;;9.30;;
9898;SDS011;4988;49.238;6.698;2024-01-27T07:49:01;25.80;;;9.97;;
9898;SDS011;4988;49.238;6.698;2024-01-27T07:51:28;20.05;;;9.60;;
9898;SDS011;4988;49.238;6.698;2024-01-27T07:53:53;29.57;;;10.30;;
9898;SDS011;4988;49.238;6.698;2024-01-27T07:56:18;24.77;;;9.27;;
9898;SDS011;4988;49.238;6.698;2024-01-27T07:58:44;27.60;;;10.37;;
9898;SDS011;4988;49.238;6.698;2024-01-27T08:01:09;22.97;;;10.83;;
9898;SDS011;4988;49.238;6.698;2024-01-27T08:03:34;27.50;;;11.27;;
9898;SDS011;4988;49.238;6.698;2024-01-27T08:06:04;26.70;;;10.93;;
9898;SDS011;4988;49.238;6.698;2024-01-27T08:08:30;28.45;;;12.40;;
9898;SDS011;4988;49.238;6.698;2024-01-27T08:10:55;32.90;;;12.27;;
9898;SDS011;4988;49.238;6.698;2024-01-27T08:13:20;33.20;;;12.40;;
9898;SDS011;4988;49.238;6.698;2024-01-27T08:15:46;44.27;;;14.20;;
9898;SDS011;4988;49.238;6.698;2024-01-27T08:18:11;42.77;;;15.37;;
9898;SDS011;4988;49.238;6.698;2024-01-27T08:20:36;47.73;;;17.30;;
9898;SDS011;4988;49.238;6.698;2024-01-27T08:23:02;37.90;;;15.77;;
9898;SDS011;4988;49.238;6.698;2024-01-27T08:25:28;39.33;;;13.87;;
9898;SDS011;4988;49.238;6.698;2024-01-27T08:27:53;36.63;;;13.50;;
9898;SDS011;4988;49.238;6.698;2024-01-27T08:30:18;37.87;;;12.53;;
9898;SDS011;4988;49.238;6.698;2024-01-27T08:32:44;40.73;;;14.37;;
9898;SDS011;4988;49.238;6.698;2024-01-27T08:35:09;29.27;;;11.73;;
9898;SDS011;4988;49.238;6.698;2024-01-27T08:37:35;22.97;;;10.23;;
9898;SDS011;4988;49.238;6.698;2024-01-27T08:40:04;27.98;;;9.98;;
9898;SDS011;4988;49.238;6.698;2024-01-27T08:42:30;22.17;;;9.52;;
9898;SDS011;4988;49.238;6.698;2024-01-27T08:44:55;24.30;;;9.93;;
9898;SDS011;4988;49.238;6.698;2024-01-27T08:47:21;24.93;;;10.37;;
9898;SDS011;4988;49.238;6.698;2024-01-27T08:49:46;39.40;;;10.87;;
9898;SDS011;4988;49.238;6.698;2024-01-27T08:52:12;23.53;;;10.17;;
9898;SDS011;4988;49.238;6.698;2024-01-27T08:54:37;36.53;;;12.63;;
9898;SDS011;4988;49.238;6.698;2024-01-27T08:57:03;45.03;;;12.77;;
9898;SDS011;4988;49.238;6.698;2024-01-27T08:59:28;50.33;;;14.30;;
9898;SDS011;4988;49.238;6.698;2024-01-27T09:01:54;29.37;;;10.97;;
9898;SDS011;4988;49.238;6.698;2024-01-27T09:04:19;26.97;;;11.63;;
9898;SDS011;4988;49.238;6.698;2024-01-27T09:06:44;30.87;;;12.43;;
9898;SDS011;4988;49.238;6.698;2024-01-27T09:09:10;45.43;;;13.67;;
9898;SDS011;4988;49.238;6.698;2024-01-27T09:11:37;32.00;;;13.18;;
9898;SDS011;4988;49.238;6.698;2024-01-27T09:14:02;36.00;;;14.23;;
9898;SDS011;4988;49.238;6.698;2024-01-27T09:16:30;59.83;;;16.13;;
9898;SDS011;4988;49.238;6.698;2024-01-27T09:18:55;49.97;;;15.87;;
9898;SDS011;4988;49.238;6.698;2024-01-27T09:21:21;38.17;;;14.97;;
9898;SDS011;4988;49.238;6.698;2024-01-27T09:23:52;48.37;;;17.13;;
9898;SDS011;4988;49.238;6.698;2024-01-27T09:26:18;49.13;;;16.20;;
9898;SDS011;4988;49.238;6.698;2024-01-27T09:28:44;37.90;;;16.00;;
9898;SDS011;4988;49.238;6.698;2024-01-27T09:31:11;40.42;;;16.50;;
9898;SDS011;4988;49.238;6.698;2024-01-27T09:33:36;37.50;;;15.10;;
9898;SDS011;4988;49.238;6.698;2024-01-27T09:36:02;37.60;;;14.80;;
9898;SDS011;4988;49.238;6.698;2024-01-27T09:38:28;58.05;;;14.68;;
9898;SDS011;4988;49.238;6.698;2024-01-27T09:40:54;34.17;;;14.60;;
9898;SDS011;4988;49.238;6.698;2024-01-27T09:43:19;40.17;;;15.23;;
9898;SDS011;4988;49.238;6.698;2024-01-27T09:45:46;38.77;;;14.80;;
9898;SDS011;4988;49.238;6.698;2024-01-27T09:48:11;37.63;;;14.57;;
9898;SDS011;4988;49.238;6.698;2024-01-27T09:50:39;36.05;;;14.73;;
9898;SDS011;4988;49.238;6.698;2024-01-27T09:53:06;37.50;;;14.57;;
9898;SDS011;4988;49.238;6.698;2024-01-27T09:55:34;29.30;;;13.20;;
9898;SDS011;4988;49.238;6.698;2024-01-27T09:57:59;41.97;;;16.13;;
9898;SDS011;4988;49.238;6.698;2024-01-27T10:00:25;41.43;;;16.77;;
9898;SDS011;4988;49.238;6.698;2024-01-27T10:02:52;51.63;;;17.50;;
9898;SDS011;4988;49.238;6.698;2024-01-27T10:05:19;40.97;;;16.17;;
9898;SDS011;4988;49.238;6.698;2024-01-27T10:07:45;44.83;;;16.97;;
9898;SDS011;4988;49.238;6.698;2024-01-27T10:10:10;37.53;;;14.77;;
9898;SDS011;4988;49.238;6.698;2024-01-27T10:12:38;33.57;;;13.70;;
9898;SDS011;4988;49.238;6.698;2024-01-27T10:15:06;30.47;;;14.23;;
9898;SDS011;4988;49.238;6.698;2024-01-27T10:17:42;35.87;;;14.37;;
9898;SDS011;4988;49.238;6.698;2024-01-27T10:20:08;34.13;;;15.23;;
9898;SDS011;4988;49.238;6.698;2024-01-27T10:22:38;32.60;;;14.43;;
9898;SDS011;4988;49.238;6.698;2024-01-27T10:25:04;36.10;;;14.67;;
9898;SDS011;4988;49.238;6.698;2024-01-27T10:27:30;33.30;;;13.60;;
9898;SDS011;4988;49.238;6.698;2024-01-27T10:29:56;33.67;;;13.47;;
9898;SDS011;4988;49.238;6.698;2024-01-27T10:32:21;34.53;;;14.40;;
9898;SDS011;4988;49.238;6.698;2024-01-27T10:34:50;29.17;;;13.13;;
9898;SDS011;4988;49.238;6.698;2024-01-27T10:37:26;28.10;;;13.80;;
9898;SDS011;4988;49.238;6.698;2024-01-27T10:42:44;34.77;;;14.67;;
9898;SDS011;4988;49.238;6.698;2024-01-27T10:45:11;36.73;;;15.63;;
9898;SDS011;4988;49.238;6.698;2024-01-27T10:47:38;39.63;;;16.17;;
9898;SDS011;4988;49.238;6.698;2024-01-27T10:50:06;44.63;;;18.03;;
9898;SDS011;4988;49.238;6.698;2024-01-27T10:52:35;44.90;;;17.60;;
9898;SDS011;4988;49.238;6.698;2024-01-27T10:55:03;43.53;;;17.60;;
9898;SDS011;4988;49.238;6.698;2024-01-27T10:57:32;43.33;;;17.77;;
9898;SDS011;4988;49.238;6.698;2024-01-27T11:00:00;51.43;;;20.10;;
9898;SDS011;4988;49.238;6.698;2024-01-27T11:02:28;49.40;;;19.90;;
9898;SDS011;4988;49.238;6.698;2024-01-27T11:04:57;64.63;;;22.40;;
9898;SDS011;4988;49.238;6.698;2024-01-27T11:07:25;58.27;;;20.07;;
9898;SDS011;4988;49.238;6.698;2024-01-27T11:09:50;61.47;;;20.07;;
9898;SDS011;4988;49.238;6.698;2024-01-27T11:12:19;45.53;;;18.47;;
9898;SDS011;4988;49.238;6.698;2024-01-27T11:14:47;52.53;;;17.70;;
9898;SDS011;4988;49.238;6.698;2024-01-27T11:17:13;48.53;;;18.00;;
9898;SDS011;4988;49.238;6.698;2024-01-27T11:19:39;44.50;;;15.50;;
9898;SDS011;4988;49.238;6.698;2024-01-27T11:22:05;44.43;;;14.73;;
9898;SDS011;4988;49.238;6.698;2024-01-27T11:24:31;45.63;;;15.47;;
9898;SDS011;4988;49.238;6.698;2024-01-27T11:27:03;40.53;;;15.20;;
9898;SDS011;4988;49.238;6.698;2024-01-27T11:29:29;46.57;;;18.23;;
9898;SDS011;4988;49.238;6.698;2024-01-27T11:31:59;36.80;;;14.90;;
9898;SDS011;4988;49.238;6.698;2024-01-27T11:34:27;39.83;;;15.13;;
9898;SDS011;4988;49.238;6.698;2024-01-27T11:36:52;37.70;;;13.80;;
9898;SDS011;4988;49.238;6.698;2024-01-27T11:39:24;36.03;;;12.77;;
9898;SDS011;4988;49.238;6.698;2024-01-27T11:41:51;39.13;;;14.00;;
9898;SDS011;4988;49.238;6.698;2024-01-27T11:44:17;37.70;;;13.73;;
9898;SDS011;4988;49.238;6.698;2024-01-27T11:46:43;32.80;;;13.53;;
9898;SDS011;4988;49.238;6.698;2024-01-27T11:49:14;38.30;;;14.40;;
9898;SDS011;4988;49.238;6.698;2024-01-27T11:51:41;36.07;;;14.23;;
9898;SDS011;4988;49.238;6.698;2024-01-27T11:54:06;33.23;;;13.50;;
9898;SDS011;4988;49.238;6.698;2024-01-27T11:56:31;32.63;;;13.40;;
9898;SDS011;4988;49.238;6.698;2024-01-27T11:58:57;34.40;;;12.83;;
9898;SDS011;4988;49.238;6.698;2024-01-27T12:01:23;37.10;;;13.67;;
9898;SDS011;4988;49.238;6.698;2024-01-27T12:03:55;30.20;;;12.87;;
9898;SDS011;4988;49.238;6.698;2024-01-27T12:06:22;32.93;;;11.83;;
9898;SDS011;4988;49.238;6.698;2024-01-27T12:08:48;36.10;;;11.60;;
9898;SDS011;4988;49.238;6.698;2024-01-27T12:11:14;31.30;;;11.07;;
9898;SDS011;4988;49.238;6.698;2024-01-27T12:13:39;27.17;;;11.27;;
9898;SDS011;4988;49.238;6.698;2024-01-27T12:16:05;27.10;;;10.90;;
9898;SDS011;4988;49.238;6.698;2024-01-27T12:18:31;29.53;;;10.63;;
9898;SDS011;4988;49.238;6.698;2024-01-27T12:20:59;29.03;;;10.70;;
9898;SDS011;4988;49.238;6.698;2024-01-27T12:23:25;29.10;;;11.47;;
9898;SDS011;4988;49.238;6.698;2024-01-27T12:25:53;30.10;;;11.57;;
9898;SDS011;4988;49.238;6.698;2024-01-27T12:28:20;30.13;;;10.73;;
9898;SDS011;4988;49.238;6.698;2024-01-27T12:30:47;28.87;;;10.90;;
9898;SDS011;4988;49.238;6.698;2024-01-27T12:33:15;29.13;;;12.63;;
9898;SDS011;4988;49.238;6.698;2024-01-27T12:35:40;30.17;;;11.77;;
9898;SDS011;4988;49.238;6.698;2024-01-27T12:38:05;34.17;;;13.17;;
9898;SDS011;4988;49.238;6.698;2024-01-27T12:40:31;31.77;;;10.77;;
9898;SDS011;4988;49.238;6.698;2024-01-27T12:42:57;26.80;;;10.77;;
9898;SDS011;4988;49.238;6.698;2024-01-27T12:45:22;32.47;;;11.20;;
9898;SDS011;4988;49.238;6.698;2024-01-27T12:47:47;26.40;;;10.27;;
9898;SDS011;4988;49.238;6.698;2024-01-27T12:50:13;19.87;;;9.93;;
9898;SDS011;4988;49.238;6.698;2024-01-27T12:52:38;23.83;;;9.97;;
9898;SDS011;4988;49.238;6.698;2024-01-27T12:55:04;24.83;;;10.23;;
9898;SDS011;4988;49.238;6.698;2024-01-27T12:57:30;25.47;;;10.20;;
9898;SDS011;4988;49.238;6.698;2024-01-27T12:59:56;28.70;;;10.90;;
9898;SDS011;4988;49.238;6.698;2024-01-27T13:02:21;23.23;;;9.13;;
9898;SDS011;4988;49.238;6.698;2024-01-27T13:04:47;24.27;;;9.70;;
9898;SDS011;4988;49.238;6.698;2024-01-27T13:07:12;26.63;;;9.87;;
9898;SDS011;4988;49.238;6.698;2024-01-27T13:09:39;26.77;;;9.90;;
9898;SDS011;4988;49.238;6.698;2024-01-27T13:12:07;23.13;;;9.30;;
9898;SDS011;4988;49.238;6.698;2024-01-27T13:14:33;27.00;;;9.30;;
9898;SDS011;4988;49.238;6.698;2024-01-27T13:16:58;28.10;;;11.13;;
9898;SDS011;4988;49.238;6.698;2024-01-27T13:19:24;34.10;;;11.97;;
9898;SDS011;4988;49.238;6.698;2024-01-27T13:21:50;28.13;;;10.20;;
9898;SDS011;4988;49.238;6.698;2024-01-27T13:24:15;26.67;;;8.70;;
9898;SDS011;4988;49.238;6.698;2024-01-27T13:26:40;21.53;;;8.83;;
9898;SDS011;4988;49.238;6.698;2024-01-27T13:29:06;26.57;;;8.77;;
9898;SDS011;4988;49.238;6.698;2024-01-27T13:31:33;19.17;;;7.83;;
9898;SDS011;4988;49.238;6.698;2024-01-27T13:33:59;18.13;;;7.10;;
9898;SDS011;4988;49.238;6.698;2024-01-27T13:36:24;30.17;;;9.83;;
9898;SDS011;4988;49.238;6.698;2024-01-27T13:38:50;21.87;;;8.90;;
9898;SDS011;4988;49.238;6.698;2024-01-27T13:41:16;29.57;;;10.97;;
9898;SDS011;4988;49.238;6.698;2024-01-27T13:43:42;21.93;;;9.23;;
9898;SDS011;4988;49.238;6.698;2024-01-27T13:46:07;17.70;;;6.53;;
9898;SDS011;4988;49.238;6.698;2024-01-27T13:48:33;18.83;;;8.33;;
9898;SDS011;4988;49.238;6.698;2024-01-27T13:50:58;18.03;;;6.53;;
9898;SDS011;4988;49.238;6.698;2024-01-27T13:53:24;16.60;;;6.20;;
9898;SDS011;4988;49.238;6.698;2024-01-27T13:55:49;15.23;;;6.60;;
9898;SDS011;4988;49.238;6.698;2024-01-27T13:58:15;12.23;;;5.90;;
9898;SDS011;4988;49.238;6.698;2024-01-27T14:00:41;15.63;;;5.50;;
9898;SDS011;4988;49.238;6.698;2024-01-27T14:03:06;13.10;;;4.80;;
9898;SDS011;4988;49.238;6.698;2024-01-27T14:05:32;17.27;;;5.83;;
9898;SDS011;4988;49.238;6.698;2024-01-27T14:07:57;14.10;;;5.30;;
9898;SDS011;4988;49.238;6.698;2024-01-27T14:10:23;11.87;;;5.13;;
9898;SDS011;4988;49.238;6.698;2024-01-27T14:12:49;14.20;;;5.50;;
9898;SDS011;4988;49.238;6.698;2024-01-27T14:15:15;16.03;;;4.43;;
9898;SDS011;4988;49.238;6.698;2024-01-27T14:17:42;17.33;;;5.17;;
9898;SDS011;4988;49.238;6.698;2024-01-27T14:20:08;9.40;;;4.50;;
9898;SDS011;4988;49.238;6.698;2024-01-27T14:22:34;9.37;;;4.63;;
9898;SDS011;4988;49.238;6.698;2024-01-27T14:25:00;11.93;;;4.37;;
9898;SDS011;4988;49.238;6.698;2024-01-27T14:27:25;8.90;;;4.40;;
9898;SDS011;4988;49.238;6.698;2024-01-27T14:29:54;10.23;;;5.37;;
9898;SDS011;4988;49.238;6.698;2024-01-27T14:32:20;10.13;;;4.73;;
9898;SDS011;4988;49.238;6.698;2024-01-27T14:34:46;14.10;;;4.70;;
9898;SDS011;4988;49.238;6.698;2024-01-27T14:37:12;9.20;;;3.73;;
9898;SDS011;4988;49.238;6.698;2024-01-27T14:39:38;10.03;;;3.90;;
9898;SDS011;4988;49.238;6.698;2024-01-27T14:42:07;10.80;;;4.30;;
9898;SDS011;4988;49.238;6.698;2024-01-27T14:44:33;15.17;;;4.53;;
9898;SDS011;4988;49.238;6.698;2024-01-27T14:46:58;10.93;;;4.30;;
9898;SDS011;4988;49.238;6.698;2024-01-27T14:49:23;11.07;;;4.10;;
9898;SDS011;4988;49.238;6.698;2024-01-27T14:51:49;9.73;;;3.67;;